Time;durP1;ratioP1;P1;durP2;ratioP2;P2;SDS_P1;SDS_P2;PMS_P1;PMS_P2;Temp;Humidity;BMP_temperature;BMP_pressure;BME280_temperature;BME280_humidity;BME280_pressure;Samples;Min_cycle;Max_cycle;Signal;HPM_P1;HPM_P2
2021/10/23 00:01:32;;;;;;;5.10;1.57;;;6.20;99.90;;;;;;5009015;28;20245;-74
2021/10/23 00:03:59;;;;;;;2.97;1.30;;;6.20;99.90;;;;;;5008926;28;20214;-74
2021/10/23 00:06:25;;;;;;;5.03;1.37;;;6.20;99.90;;;;;;5009022;28;20255;-74
2021/10/23 00:08:53;;;;;;;2.67;1.50;;;6.20;99.90;;;;;;5008695;28;20209;-73
2021/10/23 00:11:20;;;;;;;4.43;1.33;;;6.10;99.90;;;;;;5008820;28;20209;-75
2021/10/23 00:13:46;;;;;;;6.70;1.53;;;6.20;99.90;;;;;;5008240;28;20216;-74
2021/10/23 00:16:13;;;;;;;2.60;1.27;;;6.10;99.90;;;;;;5008356;28;20205;-74
2021/10/23 00:18:40;;;;;;;6.60;1.50;;;6.20;99.90;;;;;;5023642;28;20240;-73
2021/10/23 00:21:06;;;;;;;5.87;1.47;;;6.10;99.90;;;;;;5028206;28;20675;-74
2021/10/23 00:23:33;;;;;;;7.30;1.53;;;6.20;99.90;;;;;;5028603;28;20209;-74
2021/10/23 00:26:01;;;;;;;4.63;1.23;;;6.10;99.90;;;;;;5028234;28;20239;-74
2021/10/23 00:28:28;;;;;;;5.93;1.73;;;6.10;99.90;;;;;;5028406;28;20236;-74
2021/10/23 00:30:54;;;;;;;5.13;1.97;;;6.10;99.90;;;;;;5028479;28;20208;-74
2021/10/23 00:33:21;;;;;;;3.17;1.17;;;6.10;99.90;;;;;;5028421;28;20216;-74
2021/10/23 00:35:48;;;;;;;5.60;1.30;;;6.10;99.90;;;;;;5028374;28;20231;-74
2021/10/23 00:38:15;;;;;;;6.17;1.63;;;6.10;99.90;;;;;;5028200;28;20251;-74
2021/10/23 00:40:41;;;;;;;5.73;1.70;;;6.10;99.90;;;;;;5028292;28;20208;-74
2021/10/23 00:43:09;;;;;;;9.03;3.67;;;6.10;99.90;;;;;;5027899;28;20744;-74
2021/10/23 00:45:36;;;;;;;6.70;2.90;;;6.10;99.90;;;;;;5028230;28;20232;-74
2021/10/23 00:48:02;;;;;;;4.47;1.60;;;6.10;99.90;;;;;;5028035;28;20212;-74
2021/10/23 00:50:29;;;;;;;5.37;1.50;;;6.10;99.90;;;;;;5028260;28;20215;-73
2021/10/23 00:52:56;;;;;;;5.23;1.47;;;6.10;99.90;;;;;;5027810;28;20229;-73
2021/10/23 00:55:22;;;;;;;5.07;1.47;;;6.00;99.90;;;;;;5028273;28;20215;-73
2021/10/23 00:57:49;;;;;;;7.00;1.87;;;6.10;99.90;;;;;;5028248;28;20208;-73
2021/10/23 01:00:17;;;;;;;6.10;1.67;;;6.10;99.90;;;;;;5027728;28;20733;-73
2021/10/23 01:02:44;;;;;;;7.30;1.87;;;6.00;99.90;;;;;;5027966;28;20212;-73
2021/10/23 01:05:11;;;;;;;8.07;2.10;;;6.00;99.90;;;;;;5028154;28;21137;-73
2021/10/23 01:07:38;;;;;;;7.27;1.50;;;6.00;99.90;;;;;;5028065;28;20213;-73
2021/10/23 01:10:07;;;;;;;9.47;1.67;;;6.00;99.90;;;;;;5027762;28;20229;-72
2021/10/23 01:12:34;;;;;;;8.80;1.77;;;6.00;99.90;;;;;;5027867;28;20632;-72
2021/10/23 01:15:17;;;;;;;9.73;1.77;;;6.00;99.90;;;;;;5027536;28;20271;-73
2021/10/23 01:17:44;;;;;;;7.57;2.00;;;6.00;99.90;;;;;;5027982;28;20200;-72
2021/10/23 01:20:12;;;;;;;8.50;1.70;;;6.00;99.90;;;;;;5027889;28;20577;-73
2021/10/23 01:22:39;;;;;;;4.60;1.90;;;6.00;99.90;;;;;;5010170;28;20671;-73
2021/10/23 01:25:09;;;;;;;7.07;1.47;;;6.00;99.90;;;;;;5011094;28;20236;-73
2021/10/23 01:27:36;;;;;;;4.13;1.40;;;6.00;99.90;;;;;;5012145;28;20279;-73
2021/10/23 01:30:03;;;;;;;5.07;1.30;;;6.00;99.90;;;;;;5011693;28;20259;-73
2021/10/23 01:32:30;;;;;;;6.90;1.80;;;6.00;99.90;;;;;;5011842;28;20229;-73
2021/10/23 01:34:56;;;;;;;5.80;2.20;;;6.00;99.90;;;;;;5011664;28;20518;-73
2021/10/23 01:37:34;;;;;;;5.90;1.67;;;6.00;99.90;;;;;;5011284;28;20663;-73
2021/10/23 01:40:00;;;;;;;5.20;1.83;;;6.00;99.90;;;;;;5011735;28;20232;-73
2021/10/23 01:42:27;;;;;;;8.00;1.83;;;6.00;99.90;;;;;;5011135;28;20208;-73
2021/10/23 01:44:54;;;;;;;5.53;1.80;;;6.00;99.90;;;;;;5011325;28;20276;-73
2021/10/23 01:47:22;;;;;;;6.63;1.63;;;6.00;99.90;;;;;;5011531;28;20268;-73
2021/10/23 01:49:49;;;;;;;4.10;1.80;;;6.00;99.90;;;;;;5011264;28;20316;-73
2021/10/23 01:52:15;;;;;;;4.33;1.63;;;6.00;99.90;;;;;;5010915;28;20213;-73
2021/10/23 01:54:44;;;;;;;6.13;1.60;;;6.00;99.90;;;;;;5011176;28;20226;-73
2021/10/23 01:57:10;;;;;;;8.23;2.10;;;6.00;99.90;;;;;;5011234;28;20272;-73
2021/10/23 01:59:37;;;;;;;7.90;1.67;;;5.90;99.90;;;;;;5011047;28;20213;-73
2021/10/23 02:02:04;;;;;;;8.10;1.70;;;5.90;99.90;;;;;;5011064;28;20281;-73
2021/10/23 02:04:30;;;;;;;8.83;1.90;;;5.90;99.90;;;;;;5010732;28;20623;-74
2021/10/23 02:06:57;;;;;;;6.43;1.60;;;5.90;99.90;;;;;;5010561;28;20276;-74
2021/10/23 02:09:24;;;;;;;7.53;2.03;;;5.90;99.90;;;;;;5011182;28;20229;-75
2021/10/23 02:11:52;;;;;;;5.43;1.53;;;5.90;99.90;;;;;;5011184;28;20213;-74
2021/10/23 02:14:18;;;;;;;5.93;1.40;;;5.90;99.90;;;;;;5010807;28;20202;-74
2021/10/23 02:16:45;;;;;;;8.63;1.70;;;5.90;99.90;;;;;;5010804;28;20657;-74
2021/10/23 02:19:12;;;;;;;13.43;2.20;;;5.90;99.90;;;;;;5010537;28;20209;-74
2021/10/23 02:21:38;;;;;;;9.37;1.80;;;5.90;99.90;;;;;;5010794;28;20626;-74
2021/10/23 02:24:05;;;;;;;5.07;1.60;;;5.90;99.90;;;;;;5010888;28;20212;-74
2021/10/23 02:26:32;;;;;;;7.23;1.97;;;5.90;99.90;;;;;;5010404;28;20851;-74
2021/10/23 02:29:00;;;;;;;7.57;1.80;;;5.90;99.90;;;;;;5010070;28;20734;-74
2021/10/23 02:31:27;;;;;;;9.47;2.10;;;5.90;99.90;;;;;;5010499;28;20233;-75
2021/10/23 02:33:53;;;;;;;8.77;1.90;;;5.90;99.90;;;;;;5010082;28;21054;-74
2021/10/23 02:36:20;;;;;;;6.03;1.93;;;5.90;99.90;;;;;;5009818;28;20209;-74
2021/10/23 02:38:48;;;;;;;5.80;1.70;;;6.00;99.90;;;;;;5010418;28;20205;-74
2021/10/23 02:41:17;;;;;;;5.30;1.60;;;5.90;99.90;;;;;;5010480;28;20223;-75
2021/10/23 02:43:43;;;;;;;4.73;1.63;;;5.90;99.90;;;;;;5010283;28;20716;-75
2021/10/23 02:46:11;;;;;;;3.47;1.70;;;6.00;99.90;;;;;;5009776;28;20287;-75
2021/10/23 02:48:38;;;;;;;7.80;1.80;;;6.00;99.90;;;;;;5010815;28;20220;-74
2021/10/23 02:51:04;;;;;;;6.93;1.80;;;6.00;99.90;;;;;;5009846;28;20680;-74
2021/10/23 02:53:31;;;;;;;4.60;1.67;;;6.00;99.90;;;;;;5009921;28;20224;-74
2021/10/23 02:55:58;;;;;;;6.53;1.67;;;6.00;99.90;;;;;;5010040;28;20228;-73
2021/10/23 02:58:24;;;;;;;7.40;1.77;;;5.90;99.90;;;;;;5009899;28;20614;-75
2021/10/23 03:00:51;;;;;;;7.87;1.97;;;5.90;99.90;;;;;;5009717;28;20245;-75
2021/10/23 03:03:19;;;;;;;6.30;1.60;;;5.90;99.90;;;;;;5010140;28;20213;-76
2021/10/23 03:05:46;;;;;;;9.37;1.93;;;5.90;99.90;;;;;;5010034;28;20275;-76
2021/10/23 03:08:14;;;;;;;7.90;2.47;;;5.90;99.90;;;;;;5009855;28;20216;-76
2021/10/23 03:10:40;;;;;;;6.40;1.80;;;5.90;99.90;;;;;;5009960;28;20225;-73
2021/10/23 03:13:07;;;;;;;7.17;1.80;;;5.90;99.90;;;;;;5009846;28;20307;-73
2021/10/23 03:15:33;;;;;;;3.53;1.60;;;5.80;99.90;;;;;;5009416;28;20672;-73
2021/10/23 03:18:00;;;;;;;4.60;1.67;;;5.80;99.90;;;;;;5009102;28;20278;-73
2021/10/23 03:20:28;;;;;;;8.13;1.93;;;5.90;99.90;;;;;;5009816;28;20268;-73
2021/10/23 03:22:55;;;;;;;7.93;1.97;;;5.80;99.90;;;;;;5009353;28;20618;-73
2021/10/23 03:25:21;;;;;;;8.43;1.77;;;5.90;99.90;;;;;;5009500;28;20209;-73
2021/10/23 03:27:48;;;;;;;5.77;1.70;;;5.90;99.90;;;;;;5009295;28;20268;-73
2021/10/23 03:30:15;;;;;;;11.07;2.03;;;5.90;99.90;;;;;;5009203;28;20210;-73
2021/10/23 03:32:41;;;;;;;7.57;1.87;;;5.80;99.90;;;;;;5009340;28;20214;-74
2021/10/23 03:35:08;;;;;;;7.30;2.17;;;5.80;99.90;;;;;;5009108;28;20287;-74
2021/10/23 03:37:38;;;;;;;7.97;2.20;;;5.90;99.90;;;;;;5009255;28;20336;-74
2021/10/23 03:40:09;;;;;;;3.63;1.70;;;5.80;99.90;;;;;;5009298;28;20205;-74
2021/10/23 03:42:36;;;;;;;5.37;1.90;;;5.80;99.90;;;;;;5009357;28;20198;-74
2021/10/23 03:45:03;;;;;;;6.70;2.10;;;5.80;99.90;;;;;;5009203;28;20278;-74
2021/10/23 03:47:31;;;;;;;5.37;2.00;;;5.80;99.90;;;;;;5009228;28;20275;-74
2021/10/23 03:49:57;;;;;;;11.00;1.60;;;5.80;99.90;;;;;;5009100;28;20617;-73
2021/10/23 03:52:24;;;;;;;5.57;1.53;;;5.80;99.90;;;;;;5008879;28;20264;-73
2021/10/23 03:54:52;;;;;;;5.43;1.67;;;5.90;99.90;;;;;;5009031;28;20213;-73
2021/10/23 03:57:19;;;;;;;8.73;2.03;;;5.90;99.90;;;;;;5008922;28;20212;-73
2021/10/23 03:59:45;;;;;;;7.97;1.63;;;5.80;99.90;;;;;;5008597;28;20237;-73
2021/10/23 04:02:15;;;;;;;9.03;1.70;;;5.80;99.90;;;;;;5009142;28;20197;-73
2021/10/23 04:04:42;;;;;;;3.60;1.57;;;5.80;99.90;;;;;;5009104;28;20274;-74
2021/10/23 04:07:08;;;;;;;8.77;1.70;;;5.90;99.90;;;;;;5008798;28;20233;-74
2021/10/23 04:09:35;;;;;;;7.27;2.40;;;5.90;99.90;;;;;;5008571;28;20714;-73
2021/10/23 04:12:03;;;;;;;10.57;2.70;;;5.90;99.90;;;;;;5008853;28;20209;-73
2021/10/23 04:14:30;;;;;;;6.73;1.90;;;5.90;99.90;;;;;;5008954;28;20252;-73
2021/10/23 04:16:57;;;;;;;6.63;1.93;;;5.90;99.90;;;;;;5008800;28;20256;-73
2021/10/23 04:19:23;;;;;;;7.70;1.77;;;5.90;99.90;;;;;;5008716;28;20248;-73
2021/10/23 04:21:50;;;;;;;6.30;1.70;;;6.00;99.90;;;;;;5008716;28;20210;-73
2021/10/23 04:24:16;;;;;;;8.27;1.87;;;6.00;99.90;;;;;;5008909;28;20264;-72
2021/10/23 04:26:43;;;;;;;3.73;1.30;;;6.00;99.90;;;;;;5008796;28;20288;-73
2021/10/23 04:29:11;;;;;;;6.13;1.70;;;6.00;99.90;;;;;;5008623;28;20377;-72
2021/10/23 04:31:38;;;;;;;7.57;2.47;;;5.90;99.90;;;;;;5008559;28;20256;-72
2021/10/23 04:34:04;;;;;;;5.07;2.00;;;6.00;99.90;;;;;;5008527;28;20796;-72
2021/10/23 04:36:31;;;;;;;6.10;1.80;;;5.90;99.90;;;;;;5008470;28;20237;-72
2021/10/23 04:38:57;;;;;;;7.70;2.00;;;5.90;99.90;;;;;;5008283;28;20738;-73
2021/10/23 04:41:24;;;;;;;10.57;2.27;;;5.90;99.90;;;;;;5008560;28;20213;-72
2021/10/23 04:43:51;;;;;;;6.57;2.30;;;5.90;99.90;;;;;;5008702;28;20206;-75
2021/10/23 04:46:19;;;;;;;5.57;2.13;;;5.90;99.90;;;;;;5008573;28;20236;-75
2021/10/23 04:48:45;;;;;;;5.57;2.93;;;5.80;99.90;;;;;;5008428;28;20691;-77
2021/10/23 04:51:12;;;;;;;7.07;2.80;;;5.80;99.90;;;;;;5008185;28;20668;-73
2021/10/23 04:53:38;;;;;;;9.10;2.40;;;5.70;99.90;;;;;;5008168;28;20295;-73
2021/10/23 04:56:05;;;;;;;5.00;2.10;;;5.70;99.90;;;;;;5008228;28;20220;-73
2021/10/23 04:58:32;;;;;;;7.83;2.10;;;5.70;99.90;;;;;;5009077;28;20247;-73
2021/10/23 05:00:59;;;;;;;4.57;1.60;;;5.70;99.90;;;;;;5012142;28;20302;-74
2021/10/23 05:03:27;;;;;;;7.53;1.83;;;5.70;99.90;;;;;;5011974;28;20672;-73
2021/10/23 05:05:54;;;;;;;4.60;1.53;;;5.70;99.90;;;;;;5011968;28;20564;-73
2021/10/23 05:08:21;;;;;;;6.40;1.87;;;5.60;99.90;;;;;;5012120;28;20226;-73
2021/10/23 05:10:48;;;;;;;5.87;1.90;;;5.70;99.90;;;;;;5011839;28;20664;-73
2021/10/23 05:13:15;;;;;;;5.33;1.63;;;5.60;99.90;;;;;;5011711;28;20734;-74
2021/10/23 05:15:41;;;;;;;8.23;1.90;;;5.60;99.90;;;;;;5012044;28;20641;-73
2021/10/23 05:18:08;;;;;;;5.03;1.60;;;5.60;99.90;;;;;;5012102;28;20268;-74
2021/10/23 05:20:36;;;;;;;7.50;2.07;;;5.60;99.90;;;;;;5011781;28;20668;-74
2021/10/23 05:23:02;;;;;;;9.07;1.90;;;5.60;99.90;;;;;;5011309;28;20248;-74
2021/10/23 05:25:29;;;;;;;9.57;2.07;;;5.60;99.90;;;;;;5012068;28;20259;-74
2021/10/23 05:27:56;;;;;;;9.30;4.97;;;5.50;99.90;;;;;;5011787;28;20245;-76
2021/10/23 05:30:22;;;;;;;10.13;3.90;;;5.50;99.90;;;;;;5011827;28;20280;-74
2021/10/23 05:32:49;;;;;;;15.30;7.20;;;5.50;99.90;;;;;;5011661;28;20351;-73
2021/10/23 05:35:16;;;;;;;9.27;4.57;;;5.50;99.90;;;;;;5011456;28;20221;-73
2021/10/23 05:37:44;;;;;;;7.00;2.20;;;5.50;99.90;;;;;;5011269;28;20741;-75
2021/10/23 05:40:11;;;;;;;10.90;4.80;;;5.50;99.90;;;;;;5011346;28;20673;-74
2021/10/23 05:42:38;;;;;;;13.33;6.90;;;5.50;99.90;;;;;;5011494;28;20212;-74
2021/10/23 05:45:06;;;;;;;15.40;8.93;;;5.40;99.90;;;;;;5011241;28;20607;-74
2021/10/23 05:47:32;;;;;;;8.53;2.20;;;5.40;99.90;;;;;;5011369;28;20237;-74
2021/10/23 05:49:59;;;;;;;8.93;2.70;;;5.40;99.90;;;;;;5011200;28;20267;-74
2021/10/23 05:52:26;;;;;;;9.27;3.20;;;5.40;99.90;;;;;;5011138;28;20299;-75
2021/10/23 05:54:54;;;;;;;5.40;2.00;;;5.40;99.90;;;;;;5011376;28;20210;-74
2021/10/23 05:57:20;;;;;;;6.50;2.60;;;5.40;99.90;;;;;;5011254;28;20232;-74
2021/10/23 05:59:47;;;;;;;10.50;2.70;;;5.40;99.90;;;;;;5016698;28;20321;-74
2021/10/23 06:02:24;;;;;;;9.43;2.10;;;5.40;99.90;;;;;;5027264;28;20192;-74
2021/10/23 06:04:53;;;;;;;11.83;2.23;;;5.50;99.90;;;;;;5027104;28;20211;-75
2021/10/23 06:07:20;;;;;;;7.07;2.03;;;5.40;99.90;;;;;;5026720;28;20237;-74
2021/10/23 06:09:47;;;;;;;6.47;1.90;;;5.40;99.90;;;;;;5025916;28;20233;-74
2021/10/23 06:12:15;;;;;;;6.10;2.63;;;5.40;99.90;;;;;;5026580;28;20568;-72
2021/10/23 06:14:42;;;;;;;7.63;2.47;;;5.50;99.90;;;;;;5027040;28;20208;-71
2021/10/23 06:17:09;;;;;;;9.57;1.97;;;5.50;99.90;;;;;;5027139;28;20617;-74
2021/10/23 06:19:37;;;;;;;4.67;2.10;;;5.60;99.90;;;;;;5027216;28;20217;-75
2021/10/23 06:22:04;;;;;;;5.90;2.40;;;5.50;99.90;;;;;;5027106;28;20213;-75
2021/10/23 06:24:31;;;;;;;6.17;1.70;;;5.50;99.90;;;;;;5026507;28;20266;-76
2021/10/23 06:26:58;;;;;;;7.73;2.00;;;5.50;99.90;;;;;;5023243;28;20689;-74
2021/10/23 06:29:26;;;;;;;7.60;1.43;;;5.50;99.90;;;;;;5010696;28;20201;-74
2021/10/23 06:31:53;;;;;;;7.00;1.57;;;5.60;99.90;;;;;;5010143;28;20264;-75
2021/10/23 06:34:20;;;;;;;7.33;3.20;;;5.60;99.90;;;;;;5010151;28;20264;-75
2021/10/23 06:36:47;;;;;;;6.47;2.23;;;5.60;99.90;;;;;;5010175;28;20209;-74
2021/10/23 06:39:13;;;;;;;6.70;2.17;;;5.70;99.90;;;;;;5010461;28;20205;-74
2021/10/23 06:41:40;;;;;;;5.33;1.70;;;5.70;99.90;;;;;;5010543;28;20259;-74
2021/10/23 06:44:07;;;;;;;6.87;2.20;;;5.70;99.90;;;;;;5010371;28;20228;-74
2021/10/23 06:46:35;;;;;;;10.27;2.50;;;5.80;99.90;;;;;;5010339;28;20248;-74
2021/10/23 06:49:02;;;;;;;4.73;1.63;;;5.80;99.90;;;;;;5010154;28;20202;-74
2021/10/23 06:51:29;;;;;;;3.23;1.73;;;5.80;99.90;;;;;;5010185;28;20225;-74
2021/10/23 06:53:56;;;;;;;8.17;2.00;;;5.90;99.90;;;;;;5009714;28;20244;-74
2021/10/23 06:56:23;;;;;;;6.33;2.17;;;5.90;99.90;;;;;;5009996;28;20236;-75
2021/10/23 06:58:51;;;;;;;4.97;1.53;;;5.90;99.90;;;;;;5009454;28;20671;-74
2021/10/23 07:01:18;;;;;;;3.83;1.50;;;6.00;99.90;;;;;;5009623;28;20250;-74
2021/10/23 07:03:46;;;;;;;7.13;1.67;;;6.00;99.90;;;;;;5010162;28;20248;-74
2021/10/23 07:06:12;;;;;;;6.17;1.77;;;6.10;99.90;;;;;;5010224;28;20222;-75
2021/10/23 07:08:39;;;;;;;6.97;2.20;;;6.10;99.90;;;;;;5009891;28;20313;-76
2021/10/23 07:11:07;;;;;;;4.93;1.30;;;6.10;99.90;;;;;;5009809;28;20206;-75
2021/10/23 07:13:33;;;;;;;8.70;2.33;;;6.20;99.90;;;;;;5010046;28;20260;-74
2021/10/23 07:16:00;;;;;;;7.97;1.90;;;6.30;99.90;;;;;;5009385;28;21156;-74
2021/10/23 07:18:27;;;;;;;2.87;1.60;;;6.30;99.90;;;;;;5009893;28;20291;-74
2021/10/23 07:20:55;;;;;;;5.43;1.83;;;6.40;99.90;;;;;;5009356;28;20209;-74
2021/10/23 07:23:21;;;;;;;5.43;2.00;;;6.50;99.90;;;;;;5009561;28;20263;-75
2021/10/23 07:25:48;;;;;;;7.60;2.07;;;6.60;99.90;;;;;;5009560;28;20240;-74
2021/10/23 07:28:15;;;;;;;8.23;2.07;;;6.70;99.90;;;;;;5009518;28;20237;-74
2021/10/23 07:30:43;;;;;;;5.00;2.03;;;6.70;99.90;;;;;;5009554;28;20320;-75
2021/10/23 07:33:09;;;;;;;4.10;1.97;;;6.80;99.90;;;;;;5009431;28;20226;-74
2021/10/23 07:35:36;;;;;;;9.33;2.00;;;6.90;99.90;;;;;;5009295;28;20210;-74
2021/10/23 07:38:04;;;;;;;4.57;1.90;;;7.00;99.90;;;;;;5009211;28;20240;-74
2021/10/23 07:40:31;;;;;;;5.00;1.87;;;7.10;99.90;;;;;;5009191;28;20659;-74
2021/10/23 07:42:58;;;;;;;5.53;1.90;;;7.20;99.90;;;;;;5009139;28;20264;-74
2021/10/23 07:45:25;;;;;;;6.77;1.73;;;7.30;99.90;;;;;;5009452;28;20263;-74
2021/10/23 07:47:51;;;;;;;8.30;2.80;;;7.40;99.90;;;;;;5009298;28;20269;-74
2021/10/23 07:50:18;;;;;;;5.93;1.97;;;7.40;99.90;;;;;;5009543;28;20638;-75
2021/10/23 07:52:46;;;;;;;9.13;1.70;;;7.40;99.90;;;;;;5009010;28;20249;-75
2021/10/23 07:55:15;;;;;;;8.17;1.70;;;7.40;99.90;;;;;;5009208;28;20542;-75
2021/10/23 07:57:42;;;;;;;7.37;1.90;;;7.40;99.90;;;;;;5009122;28;20594;-74
2021/10/23 08:00:11;;;;;;;5.40;1.63;;;7.40;99.90;;;;;;5008769;28;20248;-75
2021/10/23 08:02:52;;;;;;;7.30;2.23;;;7.40;99.90;;;;;;5007746;28;20209;-75
2021/10/23 08:05:19;;;;;;;9.47;2.17;;;7.40;99.90;;;;;;5009258;28;20268;-74
2021/10/23 08:07:45;;;;;;;5.17;1.80;;;7.40;99.90;;;;;;5008786;28;20273;-74
2021/10/23 08:10:13;;;;;;;4.20;1.43;;;7.40;99.90;;;;;;5008719;28;20244;-75
2021/10/23 08:12:43;;;;;;;6.83;2.23;;;7.50;99.90;;;;;;5008829;28;20267;-75
2021/10/23 08:15:10;;;;;;;2.87;1.40;;;7.50;99.90;;;;;;5008685;28;20202;-75
2021/10/23 08:17:37;;;;;;;6.10;1.90;;;7.50;99.90;;;;;;5008795;28;20213;-74
2021/10/23 08:20:05;;;;;;;3.67;1.47;;;7.70;99.90;;;;;;5008728;28;20213;-75
2021/10/23 08:22:32;;;;;;;3.97;1.60;;;7.70;99.90;;;;;;5008810;28;20213;-75
2021/10/23 08:24:59;;;;;;;5.73;1.80;;;7.70;99.90;;;;;;5008501;28;20264;-75
2021/10/23 08:27:27;;;;;;;6.33;1.50;;;7.90;99.90;;;;;;5008809;28;20939;-75
2021/10/23 08:29:53;;;;;;;7.63;2.03;;;8.00;99.90;;;;;;5007962;28;20606;-74
2021/10/23 08:32:20;;;;;;;4.53;1.90;;;8.00;99.90;;;;;;5008153;28;20295;-74
2021/10/23 08:34:47;;;;;;;5.10;1.70;;;8.00;99.90;;;;;;5007882;28;20236;-75
2021/10/23 08:37:13;;;;;;;6.73;2.13;;;8.00;99.90;;;;;;5008260;28;20212;-75
2021/10/23 08:39:40;;;;;;;4.40;1.67;;;8.00;99.90;;;;;;5008382;28;20240;-75
2021/10/23 08:42:08;;;;;;;4.10;1.90;;;8.10;99.90;;;;;;5008638;28;20232;-75
2021/10/23 08:44:38;;;;;;;5.30;1.97;;;8.20;99.90;;;;;;5008591;28;20576;-75
2021/10/23 08:47:06;;;;;;;8.63;3.03;;;8.20;99.90;;;;;;5007847;28;20676;-75
2021/10/23 08:49:33;;;;;;;6.13;2.00;;;8.20;99.90;;;;;;5008357;28;20205;-75
2021/10/23 08:52:00;;;;;;;10.40;2.63;;;8.30;99.90;;;;;;5008221;28;20225;-74
2021/10/23 08:54:27;;;;;;;7.80;2.13;;;8.50;99.90;;;;;;5008345;28;20258;-75
2021/10/23 08:56:53;;;;;;;6.10;1.93;;;8.60;99.90;;;;;;5008745;28;20616;-74
2021/10/23 08:59:20;;;;;;;6.33;1.90;;;8.60;99.90;;;;;;5008503;28;20275;-74
2021/10/23 09:01:48;;;;;;;5.90;1.80;;;8.70;99.90;;;;;;5007976;28;20237;-74
2021/10/23 09:04:15;;;;;;;5.53;2.00;;;8.70;99.90;;;;;;5008168;28;20550;-74
2021/10/23 09:06:42;;;;;;;6.40;1.97;;;8.70;99.90;;;;;;5008165;28;20241;-74
2021/10/23 09:09:10;;;;;;;5.97;1.97;;;8.70;99.90;;;;;;5007830;28;20244;-74
2021/10/23 09:11:39;;;;;;;6.07;1.60;;;8.80;99.90;;;;;;5008264;28;20231;-74
2021/10/23 09:14:27;;;;;;;6.43;1.93;;;9.00;99.90;;;;;;5008039;28;20275;-74
2021/10/23 09:17:04;;;;;;;3.70;1.90;;;9.20;99.90;;;;;;5008236;28;20194;-74
2021/10/23 09:19:35;;;;;;;7.07;2.23;;;9.30;99.90;;;;;;5008370;28;20201;-74
2021/10/23 09:22:04;;;;;;;5.03;1.60;;;9.30;99.90;;;;;;5008203;28;20210;-74
2021/10/23 09:24:30;;;;;;;5.80;1.70;;;9.40;99.90;;;;;;5007357;28;20707;-74
2021/10/23 09:26:57;;;;;;;3.30;1.70;;;9.50;99.90;;;;;;5007715;28;20580;-74
2021/10/23 09:29:25;;;;;;;8.07;2.20;;;9.60;99.90;;;;;;5008194;28;20619;-74
2021/10/23 09:31:55;;;;;;;4.43;2.10;;;9.70;99.90;;;;;;5007488;28;20691;-74
2021/10/23 09:34:24;;;;;;;14.17;1.70;;;9.70;99.90;;;;;;5007815;28;20275;-74
2021/10/23 09:36:53;;;;;;;3.30;1.43;;;9.80;99.90;;;;;;5007908;28;20213;-74
2021/10/23 09:39:28;;;;;;;6.47;1.90;;;9.90;99.90;;;;;;5007910;28;20680;-74
2021/10/23 09:42:13;;;;;;;3.93;1.90;;;10.00;99.90;;;;;;5007580;28;20223;-74
2021/10/23 09:44:53;;;;;;;5.97;1.83;;;10.00;99.90;;;;;;5009011;28;20198;-74
2021/10/23 09:47:19;;;;;;;5.97;2.00;;;10.10;99.90;;;;;;5011723;28;20228;-74
2021/10/23 09:50:04;;;;;;;4.53;1.60;;;10.20;99.90;;;;;;5011193;28;20210;-75
2021/10/23 09:52:33;;;;;;;6.17;2.00;;;10.30;99.90;;;;;;5011025;28;20225;-74
2021/10/23 09:55:07;;;;;;;5.60;1.80;;;10.50;99.90;;;;;;5011074;28;20209;-74
2021/10/23 09:57:34;;;;;;;9.10;2.00;;;10.50;99.90;;;;;;5011128;28;20208;-74
2021/10/23 10:00:05;;;;;;;8.33;2.17;;;10.60;99.90;;;;;;5010943;28;20295;-74
2021/10/23 10:02:33;;;;;;;6.77;2.10;;;10.70;99.90;;;;;;5011005;28;20200;-74
2021/10/23 10:05:02;;;;;;;6.77;1.87;;;10.70;99.90;;;;;;5011009;28;20244;-74
2021/10/23 10:07:30;;;;;;;6.33;1.60;;;10.70;99.90;;;;;;5011045;28;20257;-74
2021/10/23 10:09:56;;;;;;;5.80;2.10;;;10.80;99.90;;;;;;5010961;28;20607;-74
2021/10/23 10:12:24;;;;;;;5.33;1.50;;;10.80;99.90;;;;;;5010972;28;20256;-74
2021/10/23 10:14:52;;;;;;;6.20;1.90;;;10.90;99.90;;;;;;5010916;28;20210;-75
2021/10/23 10:17:20;;;;;;;5.93;1.70;;;11.00;99.90;;;;;;5010916;28;20210;-75
2021/10/23 10:19:47;;;;;;;5.93;1.80;;;10.90;99.90;;;;;;5010732;28;20210;-74
2021/10/23 10:22:15;;;;;;;5.90;1.90;;;10.90;99.90;;;;;;5010326;28;20259;-74
2021/10/23 10:24:42;;;;;;;6.17;2.00;;;11.00;99.90;;;;;;5010350;28;20714;-74
2021/10/23 10:27:11;;;;;;;6.60;1.90;;;11.00;99.90;;;;;;5010699;28;20237;-74
2021/10/23 10:29:50;;;;;;;8.20;5.23;;;11.10;99.90;;;;;;5010751;28;20238;-74
2021/10/23 10:32:24;;;;;;;5.30;2.30;;;11.10;99.90;;;;;;5010504;28;20352;-74
2021/10/23 10:35:26;;;;;;;5.47;2.33;;;11.00;99.90;;;;;;5010419;28;20636;-74
2021/10/23 10:42:42;;;;;;;6.40;2.50;;;10.80;99.90;;;;;;4999674;28;20194;-73
2021/10/23 10:44:11;;;;;;;4.67;2.10;;;10.70;99.90;;;;;;5010315;28;20190;-76
2021/10/23 10:47:18;;;;;;;8.57;3.23;;;10.90;99.90;;;;;;5010400;28;20917;-73
2021/10/23 10:49:53;;;;;;;4.97;1.83;;;10.90;99.90;;;;;;5009972;28;20731;-74
2021/10/23 10:52:52;;;;;;;8.07;2.60;;;11.00;99.90;;;;;;5010069;28;20336;-74
2021/10/23 10:55:21;;;;;;;9.63;2.93;;;10.90;99.90;;;;;;5010416;28;20206;-74
2021/10/23 10:57:59;;;;;;;7.40;2.30;;;11.00;99.90;;;;;;5009338;28;20284;-74
2021/10/23 11:01:07;;;;;;;4.17;1.80;;;11.10;99.90;;;;;;5009940;28;20252;-74
2021/10/23 11:03:36;;;;;;;5.77;1.70;;;10.90;99.90;;;;;;4996896;28;20206;-75
2021/10/23 11:06:41;;;;;;;8.37;2.23;;;11.10;99.90;;;;;;5010012;28;20215;-75
2021/10/23 11:09:33;;;;;;;5.67;1.90;;;11.00;99.90;;;;;;4994638;28;20233;-74
2021/10/23 11:12:37;;;;;;;7.00;2.50;;;11.10;99.90;;;;;;5009970;28;20218;-75
2021/10/23 11:15:04;;;;;;;7.87;1.93;;;11.20;99.90;;;;;;4968048;28;20198;-75
2021/10/23 11:17:38;;;;;;;6.80;1.90;;;11.20;99.90;;;;;;5001295;28;20209;-74
2021/10/23 11:20:05;;;;;;;5.77;2.00;;;11.20;99.90;;;;;;5009641;28;20193;-75
2021/10/23 11:22:34;;;;;;;11.43;2.03;;;11.30;99.90;;;;;;5009807;28;20322;-75
2021/10/23 11:25:06;;;;;;;8.77;2.20;;;11.30;99.90;;;;;;5009573;28;20212;-75
2021/10/23 11:27:41;;;;;;;6.40;2.10;;;11.30;99.90;;;;;;5009907;28;20406;-75
2021/10/23 11:30:20;;;;;;;6.57;1.90;;;11.20;99.90;;;;;;5009273;28;20753;-74
2021/10/23 11:32:53;;;;;;;9.67;2.33;;;11.10;99.90;;;;;;5009494;28;20961;-75
2021/10/23 11:35:34;;;;;;;6.33;2.20;;;11.20;99.90;;;;;;5009391;28;20728;-75
2021/10/23 11:38:06;;;;;;;9.17;1.90;;;11.30;99.90;;;;;;5009450;28;20201;-75
2021/10/23 11:40:35;;;;;;;4.73;2.07;;;11.60;99.90;;;;;;5009772;28;20620;-75
2021/10/23 11:43:04;;;;;;;7.80;2.13;;;11.80;99.90;;;;;;5009487;28;20205;-75
2021/10/23 11:45:32;;;;;;;5.83;2.03;;;12.00;99.90;;;;;;5009612;28;20205;-75
2021/10/23 11:48:02;;;;;;;7.17;2.10;;;12.10;99.90;;;;;;5009204;28;20245;-75
2021/10/23 11:50:30;;;;;;;5.13;1.90;;;12.10;99.90;;;;;;5009655;28;20646;-75
2021/10/23 11:53:00;;;;;;;3.27;1.80;;;12.20;99.90;;;;;;5008807;28;20746;-75
2021/10/23 11:55:37;;;;;;;6.67;2.57;;;12.10;99.90;;;;;;5009418;28;20209;-75
2021/10/23 11:58:06;;;;;;;6.83;1.97;;;12.00;99.90;;;;;;5009079;28;20202;-75
2021/10/23 12:00:39;;;;;;;7.73;2.30;;;11.70;99.90;;;;;;5008733;28;21052;-75
2021/10/23 12:03:09;;;;;;;7.47;1.83;;;11.60;99.90;;;;;;5008697;28;20260;-75
2021/10/23 12:05:48;;;;;;;3.80;1.60;;;11.50;99.90;;;;;;5008873;28;20210;-75
2021/10/23 12:08:27;;;;;;;4.03;1.83;;;11.40;99.90;;;;;;5007891;28;20237;-74
2021/10/23 12:11:24;;;;;;;8.67;2.50;;;11.30;99.90;;;;;;5008938;28;20205;-74
2021/10/23 12:14:01;;;;;;;5.13;1.90;;;11.20;99.90;;;;;;4967229;28;20195;-74
2021/10/23 12:16:46;;;;;;;6.43;1.90;;;11.10;99.90;;;;;;5002052;28;20204;-75
2021/10/23 12:19:15;;;;;;;6.67;1.90;;;11.10;99.90;;;;;;5008973;28;20551;-75
2021/10/23 12:21:53;;;;;;;7.00;1.93;;;11.10;99.90;;;;;;5008612;28;20205;-75
2021/10/23 12:24:34;;;;;;;7.37;1.83;;;11.20;99.90;;;;;;5008683;28;20193;-75
2021/10/23 12:27:13;;;;;;;5.73;1.70;;;11.20;99.90;;;;;;5008595;28;20190;-75
2021/10/23 12:29:44;;;;;;;5.67;1.97;;;11.20;99.90;;;;;;5008594;28;20247;-74
2021/10/23 12:32:12;;;;;;;6.57;1.80;;;11.20;99.90;;;;;;5008637;28;20320;-74
2021/10/23 12:34:57;;;;;;;5.90;2.17;;;11.40;99.90;;;;;;5008540;28;20552;-75
2021/10/23 12:37:44;;;;;;;10.60;2.30;;;11.70;99.90;;;;;;5008556;28;20388;-75
2021/10/23 12:40:21;;;;;;;6.30;2.13;;;12.00;99.90;;;;;;5008378;28;20620;-75
2021/10/23 12:42:49;;;;;;;4.40;1.83;;;12.00;99.90;;;;;;5008257;28;20660;-75
2021/10/23 12:45:19;;;;;;;7.63;2.03;;;11.70;99.90;;;;;;5008237;28;20210;-74
2021/10/23 12:47:46;;;;;;;4.93;1.87;;;11.70;99.90;;;;;;5008331;28;20264;-75
2021/10/23 12:50:14;;;;;;;7.90;2.10;;;11.70;99.90;;;;;;5008031;28;20244;-75
2021/10/23 12:52:42;;;;;;;4.67;1.67;;;11.60;99.90;;;;;;5007999;28;20785;-75
2021/10/23 12:55:11;;;;;;;7.30;2.07;;;11.50;99.90;;;;;;5008084;28;20303;-74
2021/10/23 12:57:37;;;;;;;8.63;1.77;;;11.50;99.90;;;;;;5008325;28;20209;-75
2021/10/23 13:00:05;;;;;;;5.67;2.03;;;11.50;99.90;;;;;;5007751;28;20790;-75
2021/10/23 13:02:33;;;;;;;8.33;1.60;;;11.50;99.90;;;;;;5007988;28;20194;-74
2021/10/23 13:05:00;;;;;;;6.27;2.20;;;11.50;99.90;;;;;;5008027;28;20279;-75
2021/10/23 13:07:27;;;;;;;5.90;1.70;;;11.50;99.90;;;;;;5008255;28;20229;-75